Time;durP1;ratioP1;P1;durP2;ratioP2;P2;SDS_P1;SDS_P2;PMS_P1;PMS_P2;Temp;Humidity;BMP_temperature;BMP_pressure;BME280_temperature;BME280_humidity;BME280_pressure;Samples;Min_cycle;Max_cycle;Signal;HPM_P1;HPM_P2
2021/12/05 00:19:42;;;;;;;21.77;8.98;;;4.40;99.90;;;;;;4950688;29;20051;-70
2021/12/05 00:22:15;;;;;;;22.70;8.35;;;4.40;99.90;;;;;;4952384;28;20724;-70
2021/12/05 00:24:45;;;;;;;20.42;9.25;;;4.40;99.90;;;;;;4934155;29;20143;-70
2021/12/05 00:27:18;;;;;;;25.50;9.02;;;4.40;99.90;;;;;;4942470;29;20043;-70
2021/12/05 00:30:32;;;;;;;21.55;9.70;;;4.40;99.90;;;;;;4952404;29;20057;-70
2021/12/05 00:47:13;;;;;;;20.73;8.68;;;4.40;99.90;;;;;;4938055;29;20566;-70
2021/12/05 00:50:01;;;;;;;18.85;8.30;;;4.40;99.90;;;;;;4955982;28;20314;-70
2021/12/05 00:52:51;;;;;;;20.30;8.80;;;4.40;99.90;;;;;;4937925;29;20130;-70
2021/12/05 00:55:47;;;;;;;20.15;8.70;;;4.40;99.90;;;;;;4937757;29;20055;-70
2021/12/05 01:04:42;;;;;;;15.88;7.53;;;4.40;99.90;;;;;;4958403;28;20414;-70
2021/12/05 01:14:24;;;;;;;18.25;7.43;;;4.40;99.90;;;;;;4973155;28;20061;-70
2021/12/05 01:16:50;;;;;;;15.05;7.22;;;4.40;99.90;;;;;;4974393;28;20499;-70
2021/12/05 01:19:18;;;;;;;18.42;8.18;;;4.40;99.90;;;;;;4973625;28;20074;-70
2021/12/05 01:21:47;;;;;;;14.25;7.28;;;4.40;99.90;;;;;;4972962;28;20061;-70
2021/12/05 01:24:44;;;;;;;16.13;7.25;;;4.40;99.90;;;;;;4968247;28;20051;-70
2021/12/05 01:30:05;;;;;;;21.58;7.82;;;4.40;99.90;;;;;;4937000;28;20512;-70
2021/12/05 01:35:40;;;;;;;;;;;4.50;99.90;;;;;;4937563;29;20055;-70
2021/12/05 01:57:20;;;;;;;22.15;8.45;;;4.30;99.90;;;;;;4920608;28;20301;-69
2021/12/05 02:16:01;;;;;;;12.40;7.47;;;4.20;99.90;;;;;;4936785;29;20082;-70
2021/12/05 02:40:04;;;;;;;24.58;8.95;;;4.50;99.90;;;;;;4936903;28;20138;-70
2021/12/05 02:42:47;;;;;;;18.17;7.68;;;4.70;99.90;;;;;;4942785;28;20059;-70
2021/12/05 02:45:13;;;;;;;18.38;7.38;;;4.30;99.90;;;;;;4972222;28;20050;-70
2021/12/05 02:47:47;;;;;;;15.52;7.65;;;4.30;99.90;;;;;;4956702;28;20055;-70
2021/12/05 02:50:14;;;;;;;18.63;8.00;;;4.30;99.90;;;;;;4951314;28;20042;-70
2021/12/05 02:52:41;;;;;;;17.90;7.43;;;4.70;99.90;;;;;;4953163;28;20070;-70
2021/12/05 02:55:11;;;;;;;15.00;7.45;;;4.30;99.90;;;;;;4936690;29;20166;-70
2021/12/05 03:00:13;;;;;;;20.13;7.57;;;4.30;99.90;;;;;;4967168;28;20703;-69
2021/12/05 03:02:42;;;;;;;15.75;7.18;;;4.30;99.90;;;;;;4946842;28;20108;-70
2021/12/05 03:05:13;;;;;;;19.20;8.50;;;4.30;99.90;;;;;;4945924;28;20117;-70
2021/12/05 03:07:42;;;;;;;18.40;8.02;;;4.30;99.90;;;;;;4935506;29;20070;-70
2021/12/05 03:10:12;;;;;;;21.52;7.97;;;4.30;99.90;;;;;;4953320;28;20051;-69
2021/12/05 03:12:39;;;;;;;17.52;7.85;;;4.30;99.90;;;;;;4935476;29;20059;-70
2021/12/05 03:15:09;;;;;;;15.77;7.82;;;4.30;99.90;;;;;;4952550;28;20094;-70
2021/12/05 03:17:35;;;;;;;15.65;8.57;;;4.30;99.90;;;;;;4935357;28;20071;-70
2021/12/05 03:20:01;;;;;;;14.07;7.45;;;4.30;99.90;;;;;;4935700;29;20047;-70
2021/12/05 03:22:27;;;;;;;17.85;8.18;;;4.30;99.90;;;;;;4952239;29;20398;-70
2021/12/05 03:24:53;;;;;;;16.58;7.85;;;4.30;99.90;;;;;;4936701;28;20058;-70
2021/12/05 03:27:18;;;;;;;21.00;9.15;;;4.30;99.90;;;;;;4941178;28;20057;-70
2021/12/05 03:29:44;;;;;;;20.35;8.98;;;4.40;99.90;;;;;;4969292;28;20049;-70
2021/12/05 03:32:10;;;;;;;19.85;8.88;;;4.30;99.90;;;;;;4944628;29;20047;-70
2021/12/05 03:34:36;;;;;;;22.60;9.43;;;4.30;99.90;;;;;;4942615;28;20402;-69
2021/12/05 03:37:03;;;;;;;17.83;9.88;;;4.30;99.90;;;;;;4964377;28;20500;-70
2021/12/05 03:39:30;;;;;;;25.92;9.98;;;4.30;99.90;;;;;;4952679;28;20047;-70
2021/12/05 03:41:58;;;;;;;21.65;9.80;;;4.30;99.90;;;;;;4938943;29;20047;-70
2021/12/05 03:44:28;;;;;;;22.27;11.00;;;4.30;99.90;;;;;;4936566;29;20531;-70
2021/12/05 03:46:55;;;;;;;21.83;11.13;;;4.50;99.90;;;;;;4953079;29;20402;-70
2021/12/05 03:49:21;;;;;;;23.13;11.02;;;4.30;99.90;;;;;;4951483;29;20074;-70
2021/12/05 03:51:56;;;;;;;24.30;12.30;;;4.30;99.90;;;;;;4935122;29;20051;-69
2021/12/05 03:54:22;;;;;;;25.02;13.18;;;4.30;99.90;;;;;;4952597;28;20086;-70
2021/12/05 03:56:48;;;;;;;22.88;11.88;;;4.30;99.90;;;;;;4938915;28;20467;-70
2021/12/05 03:59:15;;;;;;;26.25;12.70;;;4.30;99.90;;;;;;4968771;28;20050;-70
2021/12/05 04:01:41;;;;;;;27.35;13.20;;;4.30;99.90;;;;;;4960763;28;20039;-70
2021/12/05 04:04:08;;;;;;;30.90;13.57;;;4.70;99.90;;;;;;4963816;28;20168;-70
2021/12/05 04:06:34;;;;;;;29.08;13.98;;;4.30;99.90;;;;;;4964306;28;20404;-69
2021/12/05 04:09:02;;;;;;;23.08;13.43;;;4.30;99.90;;;;;;4952948;29;20122;-70
2021/12/05 04:11:37;;;;;;;29.65;13.55;;;4.30;99.90;;;;;;4951448;28;20055;-70
2021/12/05 04:14:08;;;;;;;29.40;15.00;;;4.30;99.90;;;;;;4952627;29;20075;-69
2021/12/05 04:16:35;;;;;;;24.50;13.93;;;4.20;99.90;;;;;;4940007;28;22268;-72
2021/12/05 04:19:01;;;;;;;28.30;14.48;;;4.30;99.90;;;;;;4938152;29;20047;-70
2021/12/05 04:21:29;;;;;;;36.10;15.57;;;4.20;99.90;;;;;;4942347;28;20058;-70
2021/12/05 04:23:57;;;;;;;27.80;14.60;;;4.20;99.90;;;;;;4974654;28;20073;-70
2021/12/05 04:26:23;;;;;;;27.70;13.38;;;4.20;99.90;;;;;;4955744;28;20050;-70
2021/12/05 04:28:49;;;;;;;26.77;13.38;;;4.20;99.90;;;;;;4955845;28;20054;-70
2021/12/05 04:31:16;;;;;;;29.95;14.50;;;4.20;99.90;;;;;;4968076;28;20054;-70
2021/12/05 04:33:41;;;;;;;32.45;15.57;;;4.20;99.90;;;;;;4959629;28;20135;-69
2021/12/05 04:36:07;;;;;;;27.58;15.52;;;4.20;99.90;;;;;;4955890;29;20133;-70
2021/12/05 04:38:34;;;;;;;23.20;12.20;;;4.20;99.90;;;;;;4955032;28;20485;-70
2021/12/05 04:41:02;;;;;;;28.83;14.95;;;4.20;99.90;;;;;;4955993;28;20040;-70
2021/12/05 04:43:36;;;;;;;30.30;13.25;;;4.20;99.90;;;;;;4938378;29;20051;-70
2021/12/05 04:46:03;;;;;;;28.75;13.68;;;4.20;99.90;;;;;;4954941;28;20404;-70
2021/12/05 04:48:29;;;;;;;32.38;13.80;;;4.20;99.90;;;;;;4975087;28;20049;-70
2021/12/05 04:50:54;;;;;;;24.95;12.23;;;4.20;99.90;;;;;;4966638;28;20051;-70
2021/12/05 04:53:22;;;;;;;30.60;14.20;;;4.20;99.90;;;;;;4954606;28;20053;-70
2021/12/05 04:55:47;;;;;;;26.33;13.18;;;4.20;99.90;;;;;;4955624;28;20035;-70
2021/12/05 04:58:13;;;;;;;24.73;13.07;;;4.20;99.90;;;;;;4938663;28;20043;-70
2021/12/05 05:00:44;;;;;;;26.05;13.82;;;4.10;99.90;;;;;;4958692;28;21829;-70
2021/12/05 05:03:10;;;;;;;21.40;12.20;;;4.10;99.90;;;;;;4970324;28;20047;-70
2021/12/05 05:05:41;;;;;;;24.73;12.55;;;4.10;99.90;;;;;;4937672;29;20043;-70
2021/12/05 05:08:07;;;;;;;26.20;12.20;;;4.10;99.90;;;;;;4966448;28;20490;-70
2021/12/05 05:10:33;;;;;;;28.60;12.90;;;4.20;99.90;;;;;;4961246;28;20119;-70
2021/12/05 05:12:59;;;;;;;24.52;12.00;;;4.10;99.90;;;;;;4937302;29;20113;-70
2021/12/05 05:15:27;;;;;;;26.20;11.27;;;4.10;99.90;;;;;;4954847;28;20468;-70
2021/12/05 05:17:55;;;;;;;29.80;11.18;;;4.10;99.90;;;;;;4938017;29;20047;-70
2021/12/05 05:20:53;;;;;;;26.40;11.80;;;4.10;99.90;;;;;;4954323;28;20050;-70
2021/12/05 05:44:35;;;;;;;22.92;9.02;;;3.90;99.90;;;;;;4969467;28;20059;-70
2021/12/05 05:47:14;;;;;;;24.83;10.10;;;4.00;99.90;;;;;;4970482;28;20392;-70
2021/12/05 05:49:52;;;;;;;28.10;11.10;;;3.90;99.90;;;;;;4951600;28;20058;-70
2021/12/05 05:52:19;;;;;;;20.65;8.90;;;3.90;99.90;;;;;;4969893;28;20487;-70
2021/12/05 05:54:47;;;;;;;22.05;8.77;;;3.80;99.90;;;;;;4951665;28;20043;-70
2021/12/05 05:57:26;;;;;;;26.73;8.77;;;3.30;99.90;;;;;;4967662;28;20160;-70
2021/12/05 06:00:18;;;;;;;25.00;8.77;;;3.90;99.90;;;;;;4951454;29;20051;-70
2021/12/05 06:05:26;;;;;;;18.20;7.88;;;3.80;99.90;;;;;;4967353;28;20054;-70
2021/12/05 06:07:51;;;;;;;22.58;10.15;;;3.80;99.90;;;;;;4943239;29;20491;-70
2021/12/05 06:10:24;;;;;;;21.25;8.10;;;3.80;99.90;;;;;;4954169;28;20086;-70
2021/12/05 06:12:50;;;;;;;20.48;7.93;;;3.80;99.90;;;;;;4936523;28;20059;-70
2021/12/05 06:15:18;;;;;;;23.17;8.48;;;3.80;99.90;;;;;;4953811;28;20059;-70
2021/12/05 06:17:44;;;;;;;24.77;8.45;;;3.80;99.90;;;;;;4946069;29;20059;-69
2021/12/05 06:20:12;;;;;;;21.83;8.48;;;3.80;99.90;;;;;;4936894;29;20075;-70
2021/12/05 06:22:38;;;;;;;21.25;7.53;;;3.80;99.90;;;;;;4960643;28;20499;-70
2021/12/05 06:25:07;;;;;;;16.38;7.40;;;3.80;99.90;;;;;;4957394;28;20051;-70
2021/12/05 06:27:33;;;;;;;25.20;7.68;;;3.80;99.90;;;;;;4945175;29;20578;-70
2021/12/05 06:30:09;;;;;;;18.60;7.45;;;3.80;99.90;;;;;;4953934;28;20039;-70
2021/12/05 06:36:49;;;;;;;23.60;7.80;;;3.80;99.90;;;;;;4939820;28;20051;-70
2021/12/05 06:38:31;;;;;;;19.65;8.20;;;3.80;99.90;;;;;;4942300;28;20106;-70
2021/12/05 06:46:11;;;;;;;18.15;8.60;;;3.80;99.90;;;;;;4950258;29;20074;-70
2021/12/05 06:48:37;;;;;;;18.98;7.43;;;3.70;99.90;;;;;;4935551;28;20126;-70
2021/12/05 06:51:04;;;;;;;16.80;7.35;;;3.80;99.90;;;;;;4946871;29;20078;-70
2021/12/05 06:53:30;;;;;;;20.67;7.82;;;3.80;99.90;;;;;;4952498;28;20407;-70
2021/12/05 06:55:55;;;;;;;18.30;7.30;;;3.80;99.90;;;;;;4952128;28;20073;-70
2021/12/05 06:58:21;;;;;;;19.25;7.90;;;3.70;99.90;;;;;;4939266;29;20086;-70
2021/12/05 07:00:47;;;;;;;23.45;8.15;;;3.80;99.90;;;;;;4935294;29;20031;-70
2021/12/05 07:03:13;;;;;;;16.92;7.85;;;3.80;99.90;;;;;;4956577;28;20126;-70
2021/12/05 07:05:51;;;;;;;19.50;7.50;;;3.80;99.90;;;;;;4961726;28;20487;-70
2021/12/05 07:08:18;;;;;;;22.20;7.90;;;3.80;99.90;;;;;;4953039;28;20043;-70
2021/12/05 07:21:56;;;;;;;18.40;7.60;;;3.80;99.90;;;;;;4917246;28;20509;-70
2021/12/05 07:24:40;;;;;;;20.02;8.25;;;3.80;99.90;;;;;;4956830;28;20058;-70
2021/12/05 07:40:33;;;;;;;;;;;3.80;99.90;;;;;;4939685;28;20059;-70
2021/12/05 07:43:07;;;;;;;28.65;8.52;;;3.80;99.90;;;;;;4963033;28;19926;-71
2021/12/05 07:45:42;;;;;;;23.15;7.55;;;3.80;99.90;;;;;;4963747;28;20551;-71
2021/12/05 07:48:13;;;;;;;20.30;8.20;;;3.80;99.90;;;;;;4957664;28;20048;-70
2021/12/05 07:51:01;;;;;;;20.65;8.15;;;3.80;99.90;;;;;;4953728;28;20039;-71
2021/12/05 07:53:33;;;;;;;19.92;8.15;;;3.80;99.90;;;;;;4946527;29;20047;-71
2021/12/05 07:56:07;;;;;;;19.98;8.05;;;3.80;99.90;;;;;;4955812;28;20039;-70
2021/12/05 07:59:01;;;;;;;16.60;7.80;;;3.80;99.90;;;;;;4964318;28;20834;-71
2021/12/05 08:15:16;;;;;;;21.83;8.68;;;3.80;99.90;;;;;;4968581;28;20047;-70
2021/12/05 08:17:49;;;;;;;25.93;9.60;;;3.80;99.90;;;;;;4948323;28;20043;-70
2021/12/05 08:20:15;;;;;;;26.95;9.77;;;3.90;99.90;;;;;;4952568;28;20062;-70
2021/12/05 08:22:41;;;;;;;24.75;9.68;;;3.90;99.90;;;;;;4968055;28;20054;-70
2021/12/05 08:25:10;;;;;;;26.38;10.18;;;3.90;99.90;;;;;;4966499;28;20402;-70
2021/12/05 08:27:39;;;;;;;25.90;10.30;;;3.90;99.90;;;;;;4949433;28;20402;-70
2021/12/05 08:30:09;;;;;;;20.25;10.05;;;3.90;99.90;;;;;;4967604;28;20066;-70
2021/12/05 08:33:13;;;;;;;21.05;10.02;;;3.90;99.90;;;;;;4971395;28;20073;-70
2021/12/05 08:35:45;;;;;;;22.75;9.00;;;3.90;99.90;;;;;;4951248;28;20050;-70
2021/12/05 08:44:12;;;;;;;23.20;10.02;;;4.00;99.90;;;;;;4956643;28;20058;-70
2021/12/05 09:22:37;;;;;;;29.20;9.73;;;4.30;99.90;;;;;;4956063;28;20043;-70
2021/12/05 10:20:41;;;;;;;24.85;9.70;;;4.70;99.90;;;;;;4959344;28;20492;-71
2021/12/05 10:37:17;;;;;;;16.10;7.85;;;4.80;99.90;;;;;;4939935;28;20070;-72
2021/12/05 10:39:43;;;;;;;18.90;8.90;;;4.80;99.90;;;;;;4940505;28;20128;-71
2021/12/05 10:42:39;;;;;;;21.90;9.23;;;4.80;99.90;;;;;;4954449;28;20097;-71
2021/12/05 10:45:23;;;;;;;21.10;9.00;;;4.80;99.90;;;;;;4935356;28;20392;-72
2021/12/05 10:47:51;;;;;;;20.55;10.30;;;4.80;99.90;;;;;;4937776;29;20051;-72
2021/12/05 10:50:54;;;;;;;19.73;10.35;;;4.80;99.90;;;;;;4942596;28;20407;-72
2021/12/05 10:53:23;;;;;;;24.10;10.18;;;4.80;99.90;;;;;;4915768;28;20051;-72
2021/12/05 10:55:57;;;;;;;21.35;9.85;;;4.90;99.90;;;;;;4939115;29;20055;-71
2021/12/05 10:58:30;;;;;;;;;;;4.80;99.90;;;;;;4941543;29;20047;-72
2021/12/05 11:01:05;;;;;;;20.73;8.57;;;4.80;99.90;;;;;;4938472;29;19930;-72
2021/12/05 11:03:31;;;;;;;21.23;9.38;;;5.00;99.90;;;;;;4940340;29;20050;-72
2021/12/05 11:05:56;;;;;;;23.70;9.73;;;4.90;99.90;;;;;;4935490;29;20183;-72
2021/12/05 11:08:37;;;;;;;25.67;9.35;;;4.90;99.90;;;;;;4936280;28;20070;-72
2021/12/05 11:11:11;;;;;;;21.07;8.50;;;4.90;99.90;;;;;;4957758;28;20118;-71
2021/12/05 11:13:39;;;;;;;20.42;8.60;;;4.90;99.90;;;;;;4956284;28;20043;-72
2021/12/05 11:16:33;;;;;;;21.08;9.13;;;4.90;99.90;;;;;;4946113;29;20039;-72
2021/12/05 11:18:59;;;;;;;15.43;8.38;;;4.90;99.90;;;;;;4952314;28;20869;-72
2021/12/05 11:21:32;;;;;;;20.60;8.18;;;5.00;99.90;;;;;;4950034;28;20129;-72
2021/12/05 11:24:06;;;;;;;19.08;8.18;;;4.90;99.90;;;;;;4962472;28;20167;-71
2021/12/05 11:26:33;;;;;;;;;;;4.90;99.90;;;;;;4944554;28;20047;-72
2021/12/05 11:28:59;;;;;;;20.25;9.05;;;5.10;99.90;;;;;;4935435;29;20041;-72
2021/12/05 11:31:26;;;;;;;19.55;8.80;;;5.00;99.90;;;;;;4952331;28;20118;-71
2021/12/05 11:33:55;;;;;;;18.85;8.50;;;5.00;99.90;;;;;;4962843;28;20046;-72
2021/12/05 11:36:30;;;;;;;15.40;8.38;;;5.00;99.90;;;;;;4965445;28;20133;-72
2021/12/05 11:38:56;;;;;;;16.15;9.38;;;5.00;99.90;;;;;;4952787;28;20114;-72
2021/12/05 11:41:23;;;;;;;19.00;7.93;;;5.00;99.90;;;;;;4958885;28;20047;-71
2021/12/05 11:43:56;;;;;;;22.90;8.30;;;5.00;99.90;;;;;;4961056;28;20549;-72
2021/12/05 11:46:28;;;;;;;16.73;8.93;;;5.00;99.90;;;;;;4956115;28;20043;-72
2021/12/05 11:48:59;;;;;;;15.13;8.35;;;5.00;99.90;;;;;;4962836;28;20581;-72
2021/12/05 11:51:30;;;;;;;23.85;8.57;;;5.00;99.90;;;;;;4960443;28;20090;-72
2021/12/05 11:54:03;;;;;;;21.25;8.57;;;5.00;99.90;;;;;;4954642;28;20126;-72
2021/12/05 11:56:31;;;;;;;18.95;8.60;;;5.00;99.90;;;;;;4956785;28;20035;-72
2021/12/05 11:59:07;;;;;;;16.83;8.35;;;5.10;99.90;;;;;;4966165;28;20061;-72
2021/12/05 12:01:46;;;;;;;18.65;9.00;;;5.10;99.90;;;;;;4956427;28;20046;-72
2021/12/05 12:04:15;;;;;;;18.90;8.15;;;5.10;99.90;;;;;;4945327;29;20051;-72
2021/12/05 12:06:43;;;;;;;20.25;9.15;;;5.10;99.90;;;;;;4957520;28;20048;-74
2021/12/05 12:09:09;;;;;;;16.70;8.45;;;5.10;99.90;;;;;;4957618;28;20519;-70
2021/12/05 12:11:34;;;;;;;16.95;8.35;;;5.10;99.90;;;;;;4960335;28;20042;-73
2021/12/05 12:14:01;;;;;;;18.35;8.23;;;5.10;99.90;;;;;;4945084;28;20447;-72
2021/12/05 12:16:33;;;;;;;20.63;9.05;;;5.20;99.90;;;;;;4959071;28;20110;-72
2021/12/05 12:18:59;;;;;;;18.17;9.02;;;5.20;99.90;;;;;;4962386;28;20137;-72
2021/12/05 12:21:37;;;;;;;19.35;8.85;;;5.20;99.90;;;;;;4941307;28;20446;-72
2021/12/05 12:24:03;;;;;;;19.88;8.60;;;5.20;99.90;;;;;;4956200;28;20050;-72
2021/12/05 12:26:28;;;;;;;17.50;9.18;;;5.20;99.90;;;;;;4953235;28;20035;-72
2021/12/05 12:28:58;;;;;;;17.75;9.45;;;5.20;99.90;;;;;;4937615;29;20126;-72
2021/12/05 12:31:32;;;;;;;19.85;8.50;;;5.20;99.90;;;;;;4961819;28;20058;-73
2021/12/05 12:34:04;;;;;;;17.80;8.73;;;5.30;99.90;;;;;;4964456;28;20122;-72
2021/12/05 12:36:52;;;;;;;18.65;8.32;;;5.30;99.90;;;;;;4936064;28;20039;-72
2021/12/05 12:39:18;;;;;;;17.58;9.55;;;5.30;99.90;;;;;;4965375;28;20057;-72
2021/12/05 12:42:13;;;;;;;22.88;9.90;;;5.30;99.90;;;;;;4970662;28;20187;-72
2021/12/05 12:45:08;;;;;;;20.40;9.05;;;5.40;99.90;;;;;;4955393;28;20047;-72
2021/12/05 12:47:52;;;;;;;19.98;9.60;;;5.30;99.90;;;;;;4938921;29;20043;-72
2021/12/05 12:50:19;;;;;;;18.70;9.52;;;5.50;99.90;;;;;;4955116;28;20149;-72
2021/12/05 12:53:08;;;;;;;18.67;8.88;;;5.60;99.90;;;;;;4962374;28;20039;-71
2021/12/05 12:55:36;;;;;;;18.13;9.60;;;5.70;99.90;;;;;;4962232;28;20586;-71
2021/12/05 12:58:06;;;;;;;17.90;8.18;;;5.70;99.90;;;;;;4954244;28;20101;-71
2021/12/05 13:00:38;;;;;;;23.83;9.40;;;5.80;99.90;;;;;;4965356;28;20527;-72
2021/12/05 13:11:22;;;;;;;18.85;8.13;;;6.00;99.90;;;;;;4963220;28;20138;-72
2021/12/05 13:14:00;;;;;;;13.07;7.20;;;6.00;99.90;;;;;;4935387;28;20458;-72
2021/12/05 13:16:31;;;;;;;17.42;8.43;;;6.00;99.90;;;;;;4943646;29;20047;-72
2021/12/05 13:19:18;;;;;;;12.70;8.15;;;6.00;99.90;;;;;;4955809;28;20039;-72
2021/12/05 13:21:46;;;;;;;12.05;7.05;;;6.00;99.90;;;;;;4954159;28;20483;-72
2021/12/05 13:24:26;;;;;;;13.85;7.90;;;6.00;99.90;;;;;;4965184;28;20047;-72
2021/12/05 13:27:03;;;;;;;15.80;7.38;;;6.00;99.90;;;;;;4973124;28;20054;-72
2021/12/05 13:29:31;;;;;;;15.43;7.82;;;5.90;99.90;;;;;;4945452;29;20171;-72
2021/12/05 13:32:10;;;;;;;14.40;7.97;;;5.90;99.90;;;;;;4969429;28;20030;-71
2021/12/05 13:34:42;;;;;;;15.25;6.82;;;5.90;99.90;;;;;;4964267;28;20043;-72
2021/12/05 13:37:13;;;;;;;17.60;7.95;;;5.90;99.90;;;;;;4965475;28;20093;-71
2021/12/05 13:39:52;;;;;;;15.45;7.60;;;5.90;99.90;;;;;;4960191;28;20695;-71
2021/12/05 13:42:25;;;;;;;17.55;7.13;;;5.80;99.90;;;;;;4961911;28;20147;-71
2021/12/05 13:45:00;;;;;;;16.48;7.18;;;5.80;99.90;;;;;;4968285;28;20039;-71
2021/12/05 13:47:40;;;;;;;16.45;7.07;;;5.80;99.90;;;;;;4944261;29;20058;-72
2021/12/05 13:50:29;;;;;;;13.20;7.32;;;5.80;99.90;;;;;;4960944;28;20050;-72
2021/12/05 13:53:07;;;;;;;15.75;7.65;;;5.70;99.90;;;;;;4936779;28;20105;-72
2021/12/05 13:55:53;;;;;;;16.83;7.13;;;5.80;99.90;;;;;;4946025;28;20848;-71
2021/12/05 13:58:43;;;;;;;16.25;7.32;;;5.80;99.90;;;;;;4962678;28;20061;-71
2021/12/05 14:01:31;;;;;;;15.80;7.80;;;5.70;99.90;;;;;;4958430;28;20055;-72
2021/12/05 14:04:08;;;;;;;17.17;7.55;;;5.70;99.90;;;;;;4962150;28;20061;-71
2021/12/05 14:06:57;;;;;;;16.20;7.35;;;5.70;99.90;;;;;;4961124;28;20039;-71
2021/12/05 14:09:42;;;;;;;18.17;7.53;;;5.80;99.90;;;;;;4962511;28;20054;-71
2021/12/05 14:12:07;;;;;;;18.45;7.00;;;5.80;99.90;;;;;;4957307;28;20059;-71
2021/12/05 14:14:48;;;;;;;12.65;6.78;;;5.70;99.90;;;;;;4961436;28;20560;-71
2021/12/05 14:17:42;;;;;;;15.95;7.10;;;5.70;99.90;;;;;;4957866;28;20042;-71
2021/12/05 14:20:14;;;;;;;13.45;7.00;;;5.70;99.90;;;;;;4961695;28;20057;-71
2021/12/05 14:22:42;;;;;;;12.30;7.30;;;5.70;99.90;;;;;;4956290;28;20062;-71
2021/12/05 14:25:21;;;;;;;16.55;7.88;;;5.70;99.90;;;;;;4941877;28;20054;-72
2021/12/05 14:27:54;;;;;;;14.80;7.63;;;5.70;99.90;;;;;;4944187;28;20051;-71
2021/12/05 14:30:24;;;;;;;16.33;8.32;;;5.70;99.90;;;;;;4957893;28;20093;-71
2021/12/05 14:32:57;;;;;;;11.48;6.78;;;5.70;99.90;;;;;;4956795;28;20075;-70
2021/12/05 14:35:26;;;;;;;14.35;7.40;;;5.60;99.90;;;;;;4958691;28;20490;-71
2021/12/05 14:37:52;;;;;;;13.95;7.65;;;5.60;99.90;;;;;;4960375;28;20046;-71
2021/12/05 14:40:21;;;;;;;16.98;7.47;;;5.60;99.90;;;;;;4941605;28;20149;-71
2021/12/05 14:42:51;;;;;;;16.02;8.10;;;5.60;99.90;;;;;;4955391;28;20049;-70
2021/12/05 14:45:23;;;;;;;10.13;6.38;;;5.60;99.90;;;;;;4940457;28;20074;-70
2021/12/05 14:47:51;;;;;;;12.82;7.18;;;5.60;99.90;;;;;;4956942;28;20043;-70
2021/12/05 14:50:20;;;;;;;14.40;7.13;;;5.60;99.90;;;;;;4959451;28;20396;-70
2021/12/05 14:52:50;;;;;;;14.77;7.45;;;5.60;99.90;;;;;;4931459;28;20046;-70
2021/12/05 14:55:18;;;;;;;15.27;7.57;;;5.60;99.90;;;;;;4958040;28;20110;-71
2021/12/05 14:57:47;;;;;;;20.00;8.00;;;5.50;99.90;;;;;;4957549;28;20047;-70
2021/12/05 15:00:27;;;;;;;17.30;7.85;;;5.50;99.90;;;;;;4961900;28;20047;-70
2021/12/05 15:03:04;;;;;;;12.20;7.28;;;5.50;99.90;;;;;;4939015;28;20058;-70
2021/12/05 15:05:31;;;;;;;18.65;7.43;;;5.50;99.90;;;;;;4959112;28;20046;-70
2021/12/05 15:08:10;;;;;;;14.98;7.35;;;5.50;99.90;;;;;;4943893;28;20058;-70
2021/12/05 15:10:36;;;;;;;13.68;7.68;;;5.50;99.90;;;;;;4960016;28;20133;-70
2021/12/05 15:13:03;;;;;;;13.60;6.95;;;5.50;99.90;;;;;;4940442;28;20108;-70
2021/12/05 15:15:29;;;;;;;16.00;8.07;;;5.50;99.90;;;;;;4946478;28;20058;-69
2021/12/05 15:17:56;;;;;;;19.77;8.35;;;5.40;99.90;;;;;;4944882;28;20054;-72
2021/12/05 15:20:26;;;;;;;16.35;7.50;;;5.40;99.90;;;;;;4942759;28;20130;-72
2021/12/05 15:22:58;;;;;;;13.57;7.45;;;5.40;99.90;;;;;;4939110;28;20471;-73
2021/12/05 15:25:27;;;;;;;17.73;8.40;;;5.40;99.90;;;;;;4958492;28;20109;-73
2021/12/05 15:27:54;;;;;;;15.18;8.30;;;5.40;99.90;;;;;;4960188;28;20051;-72
2021/12/05 15:30:21;;;;;;;17.33;7.55;;;5.40;99.90;;;;;;4958825;28;20822;-72
2021/12/05 15:33:02;;;;;;;12.70;7.10;;;5.40;99.90;;;;;;4939045;28;20047;-72
2021/12/05 15:35:29;;;;;;;16.35;8.25;;;5.40;99.90;;;;;;4942913;28;20392;-71
2021/12/05 15:37:58;;;;;;;19.65;8.70;;;4.80;99.90;;;;;;4943465;28;20087;-71
2021/12/05 15:40:26;;;;;;;16.08;8.98;;;5.40;99.90;;;;;;4939547;28;20125;-71
2021/12/05 15:43:01;;;;;;;17.67;8.48;;;5.40;99.90;;;;;;4937066;28;20051;-72
2021/12/05 15:45:27;;;;;;;17.98;8.77;;;5.30;99.90;;;;;;4960089;28;20515;-71
2021/12/05 15:47:53;;;;;;;19.65;8.93;;;5.30;99.90;;;;;;4958455;28;20098;-72
2021/12/05 15:50:31;;;;;;;18.05;8.65;;;5.30;99.90;;;;;;4942973;28;20447;-69
2021/12/05 15:53:10;;;;;;;19.38;9.00;;;5.30;99.90;;;;;;4957670;28;20049;-69
2021/12/05 15:55:36;;;;;;;19.15;9.77;;;5.30;99.90;;;;;;4960231;28;20130;-69
2021/12/05 15:58:08;;;;;;;19.10;9.35;;;5.30;99.90;;;;;;4958422;28;20096;-69
2021/12/05 16:00:45;;;;;;;20.05;9.27;;;5.30;99.90;;;;;;4942821;28;20050;-70
2021/12/05 16:03:14;;;;;;;16.55;8.80;;;5.30;99.90;;;;;;4942809;28;20102;-68
2021/12/05 16:05:43;;;;;;;19.05;10.23;;;5.30;99.90;;;;;;4944685;28;20047;-69
2021/12/05 16:08:14;;;;;;;23.92;10.68;;;5.30;99.90;;;;;;4943386;28;20046;-69
2021/12/05 16:10:44;;;;;;;22.08;10.45;;;5.20;99.90;;;;;;4946240;28;20054;-69
2021/12/05 16:13:16;;;;;;;21.65;11.02;;;5.20;99.90;;;;;;4950600;28;20071;-69
2021/12/05 16:15:44;;;;;;;18.80;10.80;;;5.20;99.90;;;;;;4944234;28;20071;-70
2021/12/05 16:18:10;;;;;;;19.77;10.68;;;5.20;99.90;;;;;;4930807;29;20423;-70
2021/12/05 16:20:45;;;;;;;20.67;10.82;;;5.20;99.90;;;;;;4941933;28;20120;-72
2021/12/05 16:23:15;;;;;;;23.23;11.65;;;5.20;99.90;;;;;;4965286;28;20097;-69
2021/12/05 16:26:01;;;;;;;22.25;11.07;;;5.20;99.90;;;;;;4960019;28;20399;-69
2021/12/05 16:28:36;;;;;;;24.15;12.25;;;5.20;99.90;;;;;;4941379;28;20078;-70
2021/12/05 16:31:07;;;;;;;25.25;12.80;;;5.20;99.90;;;;;;4945033;28;20400;-73
2021/12/05 16:33:34;;;;;;;22.98;13.25;;;5.20;99.90;;;;;;4941277;28;20047;-69
2021/12/05 16:36:03;;;;;;;26.52;15.65;;;5.10;99.90;;;;;;4942427;28;20096;-69
2021/12/05 16:38:36;;;;;;;31.42;15.20;;;5.10;99.90;;;;;;4964545;28;20038;-69
2021/12/05 16:41:12;;;;;;;29.10;15.65;;;5.10;99.90;;;;;;4961862;28;20051;-69
2021/12/05 16:43:47;;;;;;;26.48;15.05;;;5.10;99.90;;;;;;4956685;28;20396;-69
2021/12/05 16:46:18;;;;;;;31.85;16.52;;;5.10;99.90;;;;;;4964155;28;20397;-69
2021/12/05 16:48:45;;;;;;;27.73;13.57;;;5.10;99.90;;;;;;4942899;28;20077;-69
2021/12/05 16:51:21;;;;;;;27.50;15.15;;;5.20;99.90;;;;;;4960911;28;20043;-69
2021/12/05 16:53:50;;;;;;;27.08;14.00;;;5.10;99.90;;;;;;4949146;28;20042;-70
2021/12/05 16:56:34;;;;;;;28.65;14.50;;;5.10;99.90;;;;;;4963206;28;20061;-70
2021/12/05 16:59:06;;;;;;;26.63;14.35;;;5.10;99.90;;;;;;4950352;28;20043;-69
2021/12/05 17:01:32;;;;;;;24.70;13.07;;;5.10;99.90;;;;;;4968013;28;20105;-69
2021/12/05 17:03:57;;;;;;;30.17;15.20;;;5.10;99.90;;;;;;4962392;28;20047;-69
2021/12/05 17:06:23;;;;;;;28.50;15.20;;;5.10;99.90;;;;;;4942288;28;20055;-69
2021/12/05 17:08:49;;;;;;;31.52;16.17;;;5.00;99.90;;;;;;4963693;28;20039;-69
2021/12/05 17:11:21;;;;;;;29.13;13.93;;;4.70;99.90;;;;;;4943508;28;20051;-69
2021/12/05 17:13:52;;;;;;;23.70;14.15;;;5.00;99.90;;;;;;4964238;28;20062;-69
2021/12/05 17:16:27;;;;;;;30.98;15.48;;;5.00;99.90;;;;;;4947667;28;20050;-69
2021/12/05 17:18:53;;;;;;;28.88;14.68;;;5.10;99.90;;;;;;4959294;28;20488;-69
2021/12/05 17:21:23;;;;;;;29.88;15.48;;;5.00;99.90;;;;;;4961043;28;20058;-69
2021/12/05 17:23:51;;;;;;;24.55;14.70;;;5.00;99.90;;;;;;4957593;28;20054;-69
2021/12/05 17:26:24;;;;;;;27.83;14.88;;;5.00;99.90;;;;;;4943479;28;20115;-69
2021/12/05 17:29:00;;;;;;;28.30;14.55;;;5.00;99.90;;;;;;4949808;28;20051;-68
2021/12/05 17:31:37;;;;;;;24.60;14.98;;;4.90;99.90;;;;;;4952623;28;20046;-69
2021/12/05 17:34:09;;;;;;;29.30;15.13;;;5.00;99.90;;;;;;4969754;28;20066;-70
2021/12/05 17:36:39;;;;;;;27.75;15.98;;;4.90;99.90;;;;;;4946940;28;20051;-69
2021/12/05 17:39:17;;;;;;;23.95;15.15;;;5.00;99.90;;;;;;4955686;28;20652;-69
2021/12/05 17:41:45;;;;;;;29.58;15.05;;;5.00;99.90;;;;;;4942870;28;20833;-69
2021/12/05 17:44:13;;;;;;;24.98;14.30;;;5.00;99.90;;;;;;4944174;28;20085;-69
2021/12/05 17:46:39;;;;;;;30.67;16.27;;;5.00;99.90;;;;;;4939006;28;20047;-69
2021/12/05 17:49:08;;;;;;;27.90;14.43;;;5.00;99.90;;;;;;4941182;28;20058;-69
2021/12/05 17:51:37;;;;;;;26.95;14.85;;;4.90;99.90;;;;;;4937346;28;20512;-69
2021/12/05 17:54:12;;;;;;;19.75;12.38;;;5.00;99.90;;;;;;4940084;28;20043;-69
2021/12/05 17:56:42;;;;;;;25.20;13.85;;;4.90;99.90;;;;;;4954664;28;20094;-69
2021/12/05 17:59:26;;;;;;;24.70;14.75;;;4.90;99.90;;;;;;4970491;28;20061;-69
2021/12/05 18:04:40;;;;;;;26.35;15.20;;;4.90;99.90;;;;;;4954471;28;20479;-69
2021/12/05 18:07:07;;;;;;;25.80;14.98;;;5.00;99.90;;;;;;4938770;28;20129;-70
2021/12/05 18:09:32;;;;;;;26.98;14.70;;;4.90;99.90;;;;;;4948227;28;20058;-69
2021/12/05 18:11:58;;;;;;;27.30;13.70;;;4.90;99.90;;;;;;4947202;28;20050;-70
2021/12/05 18:14:24;;;;;;;25.20;13.40;;;4.80;99.90;;;;;;4958774;28;20051;-70